Etusivu
METAR-TAF:

METAR-TAF

Lentoasemat :

Saint-Pierre, Saint-Pierre ja Miquelon

Leveyspiiri: 46-46N, Pituuspiiri: 056-10W, korkeus merenpinnasta: 3 m

Tämänhetkinen sää

Tämä raportti tehtiin 7 tuntia ja 53 minuuttia sitten, kello 20.00 UTC
Tuuli 12 kn lännestä/lounaasta, vaihdellen etelän/lounaan ja lännen välillä
Lämpötila 2°C
Kosteus 60%
Ilmanpaine 1005 hPa
Näkyvyys 10 km tai enemmän
ei pilviä alle 1500 m:ssä eikä cumulonimbus-pilviä

METAR: LFVP 092000Z 24012KT 210V270 CAVOK 02/M05 Q1005 NOSIG

Aika: 01:53 (03:53 UTC)

Sääennuste

Tämä raportti tehtiin 10 tuntia ja 53 minuuttia sitten, kello 17.00 UTC
Ennuste voimassa 09. päivästä klo 18 UTC - 10. päivään klo 03 UTC
Tuuli 12 kn lännestä
Näkyvyys 10 km tai enemmän
Muutamia pilviä 2000 ft:n korkeudessa
Tulossa
10. päivästä klo 00 UTC - 10. päivään klo 03 UTC
Tuuli 8 kn etelästä

TAF: LFVP 091700Z 0918/1003 27012KT 9999 FEW020 BECMG 1000/1003 18008KT

Säähavainnot ja -ennusteet yli 4000 lentoasemalta (METAR- ja TAF-raportit).

Käytössä olevat sääasemat on merkitty karttaan keltaisilla ja punaisilla pisteillä.

Aseta hiiri pisteen päälle nähdäksesi sääaseman nimen.

Klikkaa sitten nähdäksesi säähavainnot ja -ennusteet.

Kartan vaihtaminen: klikkaa mustalla rastilla varustettuja vihreitä pisteitä, niin voit zoomata sisään; viivalla varustettua vihreää pistettä, niin voit zoomata ulos tai vihreitä nuolia, niin pääset viereisille kartoille.


METAR-TAF: